createdAt,value
2023-05-16T00:02:51.212Z,40.70
2023-05-16T00:07:56.456Z,40.90
2023-05-16T00:13:02.161Z,41.10
2023-05-16T00:18:06.554Z,40.70
2023-05-16T00:23:11.295Z,41.00
2023-05-16T00:28:16.964Z,41.10
2023-05-16T00:33:20.640Z,40.60
2023-05-16T00:38:26.257Z,40.90
2023-05-16T00:43:29.657Z,41.10
2023-05-16T00:48:33.619Z,40.90
2023-05-16T00:53:38.774Z,40.70
2023-05-16T00:58:42.306Z,41.00
2023-05-16T01:03:47.456Z,40.80
2023-05-16T01:08:52.600Z,40.90
2023-05-16T01:14:08.442Z,41.00
2023-05-16T01:19:25.740Z,41.50
2023-05-16T01:24:35.771Z,41.40
2023-05-16T01:29:40.550Z,41.60
2023-05-16T01:34:43.989Z,41.10
2023-05-16T01:39:53.871Z,40.60
2023-05-16T01:45:08.809Z,41.00
2023-05-16T01:50:18.598Z,41.30
2023-05-16T01:55:28.300Z,41.20
2023-05-16T02:00:35.413Z,41.10
2023-05-16T02:05:38.865Z,41.20
2023-05-16T02:10:42.121Z,40.90
2023-05-16T02:15:46.876Z,40.90
2023-05-16T02:20:50.281Z,41.30
2023-05-16T02:25:53.500Z,41.10
2023-05-16T02:31:03.634Z,41.00
2023-05-16T02:36:07.215Z,41.50
2023-05-16T02:41:10.471Z,41.10
2023-05-16T02:46:32.091Z,41.10
2023-05-16T02:51:35.599Z,41.90
2023-05-16T02:56:38.884Z,41.50
2023-05-16T03:01:43.555Z,41.50
2023-05-16T03:06:46.888Z,41.60
2023-05-16T03:11:56.444Z,41.30
2023-05-16T03:17:02.583Z,41.90
2023-05-16T03:22:06.473Z,41.70
2023-05-16T03:27:10.022Z,41.60
2023-05-16T03:32:15.180Z,41.50
2023-05-16T03:37:18.423Z,41.90
2023-05-16T03:42:21.767Z,41.70
2023-05-16T03:47:26.967Z,41.70
2023-05-16T03:52:30.731Z,41.90
2023-05-16T03:57:35.352Z,41.70
2023-05-16T04:02:41.854Z,41.60
2023-05-16T04:07:45.617Z,41.90
2023-05-16T04:12:48.928Z,41.80
2023-05-16T04:17:53.499Z,42.00
2023-05-16T04:22:56.699Z,42.40
2023-05-16T04:28:00.336Z,41.80
2023-05-16T04:33:06.407Z,41.50
2023-05-16T04:38:09.624Z,41.90
2023-05-16T04:43:13.411Z,41.60
2023-05-16T04:48:18.732Z,41.70
2023-05-16T04:53:22.665Z,41.90
2023-05-16T04:58:25.916Z,41.60
2023-05-16T05:03:30.468Z,41.60
2023-05-16T05:08:33.644Z,42.00
2023-05-16T05:13:36.826Z,41.90
2023-05-16T05:18:42.432Z,42.00
2023-05-16T05:23:46.112Z,42.20
2023-05-16T05:29:01.050Z,42.10
2023-05-16T05:34:09.449Z,42.30
2023-05-16T05:39:12.596Z,42.60
2023-05-16T05:44:15.741Z,42.60
2023-05-16T05:49:20.334Z,42.60
2023-05-16T05:54:24.900Z,42.90
2023-05-16T05:59:28.595Z,42.60
2023-05-16T06:04:33.060Z,42.80
2023-05-16T06:09:36.264Z,42.90
2023-05-16T06:14:39.360Z,42.60
2023-05-16T06:19:43.862Z,42.50
2023-05-16T06:24:46.953Z,42.80
2023-05-16T06:29:50.161Z,42.60
2023-05-16T06:34:54.895Z,42.60
2023-05-16T06:39:58.080Z,43.40
2023-05-16T06:45:01.256Z,43.40
2023-05-16T06:50:06.640Z,42.70
2023-05-16T06:55:10.668Z,42.80
2023-05-16T07:00:14.868Z,42.60
2023-05-16T07:05:19.500Z,42.60
2023-05-16T07:10:23.028Z,42.60
2023-05-16T07:15:26.735Z,42.60
2023-05-16T07:20:31.663Z,42.50
2023-05-16T07:25:35.127Z,42.90
2023-05-16T07:30:38.294Z,42.50
2023-05-16T07:35:42.959Z,42.50
2023-05-16T07:40:46.072Z,42.70
2023-05-16T07:45:49.259Z,42.70
2023-05-16T07:50:56.032Z,42.70
2023-05-16T07:56:00.162Z,43.20
2023-05-16T08:01:03.459Z,43.00
2023-05-16T08:06:08.354Z,43.00
2023-05-16T08:11:11.845Z,43.10
2023-05-16T08:16:15.152Z,42.90
2023-05-16T08:21:19.663Z,42.80
2023-05-16T08:26:23.146Z,42.90
2023-05-16T08:31:26.286Z,42.80
2023-05-16T08:36:35.616Z,42.70
2023-05-16T08:41:38.930Z,42.90
2023-05-16T08:46:43.572Z,42.60
2023-05-16T08:51:49.984Z,42.50
2023-05-16T08:56:54.098Z,42.40
2023-05-16T09:01:58.436Z,42.70
2023-05-16T09:07:03.151Z,42.50
2023-05-16T09:12:06.693Z,42.70
2023-05-16T09:17:12.466Z,42.80
2023-05-16T09:22:17.248Z,42.90
2023-05-16T09:27:21.144Z,42.90
2023-05-16T09:32:25.699Z,42.80
2023-05-16T09:37:31.845Z,43.00
2023-05-16T09:42:35.235Z,43.10
2023-05-16T09:47:45.889Z,43.20
2023-05-16T09:52:55.435Z,43.20
2023-05-16T09:57:58.937Z,43.40
2023-05-16T10:03:05.785Z,43.20
2023-05-16T10:08:11.501Z,44.30
2023-05-16T10:13:15.385Z,43.80
2023-05-16T10:18:19.719Z,43.70
2023-05-16T10:23:27.446Z,43.80
2023-05-16T10:28:31.083Z,44.30
2023-05-16T10:33:34.271Z,43.00
2023-05-16T10:38:39.665Z,43.10
2023-05-16T10:43:46.352Z,43.00
2023-05-16T10:48:50.423Z,42.40
2023-05-16T10:53:56.794Z,42.60
2023-05-16T10:59:04.905Z,42.80
2023-05-16T11:04:11.744Z,42.60
2023-05-16T11:09:34.309Z,42.40
2023-05-16T11:14:39.781Z,42.20
2023-05-16T11:19:45.144Z,42.30
2023-05-16T11:24:58.514Z,42.10
2023-05-16T11:30:12.072Z,42.50
2023-05-16T11:35:17.935Z,42.20
2023-05-16T11:40:22.537Z,40.40
2023-05-16T11:45:25.810Z,39.00
2023-05-16T11:50:29.379Z,39.70
2023-05-16T12:00:50.873Z,40.30
2023-05-16T12:05:57.101Z,40.20
2023-05-16T12:11:02.056Z,40.30
2023-05-16T12:16:05.692Z,40.50
2023-05-16T12:21:09.245Z,40.20
2023-05-16T12:26:14.355Z,40.60
2023-05-16T12:31:31.177Z,41.40
2023-05-16T12:36:36.861Z,41.60
2023-05-16T12:41:43.803Z,41.70
2023-05-16T12:46:49.912Z,41.90
2023-05-16T12:51:55.128Z,41.80
2023-05-16T12:56:59.891Z,41.60
2023-05-16T13:02:03.530Z,41.80
2023-05-16T13:07:07.855Z,41.70
2023-05-16T13:12:14.230Z,41.90
2023-05-16T13:17:17.435Z,41.70
2023-05-16T13:22:20.557Z,41.40
2023-05-16T13:27:27.809Z,41.60
2023-05-16T13:32:31.171Z,42.20
2023-05-16T13:37:34.448Z,42.30
2023-05-16T13:42:39.730Z,42.30
2023-05-16T13:47:43.196Z,44.10
2023-05-16T13:52:47.538Z,43.30
2023-05-16T13:57:52.088Z,43.30
2023-05-16T14:02:58.470Z,43.80
2023-05-16T14:08:02.571Z,43.90
2023-05-16T14:13:07.515Z,43.40
2023-05-16T14:18:10.784Z,43.80
2023-05-16T14:23:20.278Z,43.60
2023-05-16T14:28:24.960Z,43.70
2023-05-16T14:33:28.167Z,44.40
2023-05-16T14:38:31.380Z,43.90
2023-05-16T14:43:36.121Z,43.90
2023-05-16T14:48:39.605Z,44.00
2023-05-16T14:53:45.281Z,43.70
2023-05-16T14:58:51.453Z,43.40
2023-05-16T15:03:56.329Z,43.80
2023-05-16T15:08:59.948Z,43.60
2023-05-16T15:14:04.508Z,43.90
2023-05-16T15:19:07.879Z,44.20
2023-05-16T15:24:12.289Z,44.00
2023-05-16T15:29:17.487Z,43.80
2023-05-16T15:34:20.795Z,43.70
2023-05-16T15:39:25.887Z,43.80
2023-05-16T15:44:30.556Z,43.60
2023-05-16T15:49:33.965Z,43.90
2023-05-16T15:54:38.126Z,43.80
2023-05-16T15:59:45.842Z,43.80
2023-05-16T16:04:49.622Z,44.60
2023-05-16T16:09:52.886Z,45.00
2023-05-16T16:15:09.403Z,44.10
2023-05-16T16:20:13.125Z,44.00
2023-05-16T16:25:16.437Z,43.40
2023-05-16T16:30:21.041Z,43.20
2023-05-16T16:35:26.006Z,43.20
2023-05-16T16:40:31.141Z,43.30
2023-05-16T16:45:35.787Z,43.40
2023-05-16T16:50:39.029Z,43.50
2023-05-16T16:55:42.168Z,43.30
2023-05-16T17:00:46.777Z,43.40
2023-05-16T17:05:49.963Z,43.40
2023-05-16T17:10:53.419Z,43.20
2023-05-16T17:16:02.030Z,42.90
2023-05-16T17:21:05.302Z,43.20
2023-05-16T17:26:09.776Z,42.30
2023-05-16T17:31:14.862Z,41.90
2023-05-16T17:36:18.230Z,41.50
2023-05-16T17:41:22.135Z,41.60
2023-05-16T17:46:26.944Z,41.50
2023-05-16T17:51:30.876Z,41.50
2023-05-16T17:56:34.266Z,42.20
2023-05-16T18:01:39.863Z,41.10
2023-05-16T18:06:44.144Z,40.70
2023-05-16T18:11:51.842Z,40.80
2023-05-16T18:16:56.571Z,40.30
2023-05-16T18:22:01.117Z,40.50
2023-05-16T18:27:04.493Z,40.50
2023-05-16T18:32:10.626Z,40.70
2023-05-16T18:37:13.864Z,40.50
2023-05-16T18:42:20.001Z,40.80
2023-05-16T18:47:30.806Z,40.70
2023-05-16T18:52:35.406Z,40.30
2023-05-16T18:57:41.710Z,40.80
2023-05-16T19:02:47.956Z,40.50
2023-05-16T19:07:57.539Z,40.60
2023-05-16T19:13:07.011Z,40.60
2023-05-16T19:18:11.792Z,40.80
2023-05-16T19:23:15.460Z,40.70
2023-05-16T19:28:18.962Z,40.70
2023-05-16T19:33:23.854Z,40.60
2023-05-16T19:38:29.038Z,40.60
2023-05-16T19:43:37.772Z,40.60
2023-05-16T19:48:54.948Z,40.70
2023-05-16T19:53:58.473Z,40.40
2023-05-16T19:59:01.750Z,40.50
2023-05-16T20:04:07.346Z,40.40
2023-05-16T20:09:11.512Z,40.40
2023-05-16T20:14:18.397Z,40.30
2023-05-16T20:19:24.718Z,40.10
2023-05-16T20:24:32.761Z,40.30
2023-05-16T20:29:41.505Z,40.00
2023-05-16T20:41:56.429Z,39.70
2023-05-16T20:47:02.424Z,39.80
2023-05-16T20:52:07.358Z,39.80
2023-05-16T20:57:12.058Z,40.00
2023-05-16T21:02:16.142Z,40.00
2023-05-16T21:07:20.399Z,39.90
2023-05-16T21:12:25.116Z,40.60
2023-05-16T21:17:28.417Z,39.70
2023-05-16T21:22:31.763Z,39.70
2023-05-16T21:27:38.931Z,40.00
2023-05-16T21:32:46.304Z,39.50
2023-05-16T21:37:49.683Z,39.70
2023-05-16T21:43:18.906Z,39.50
2023-05-16T21:48:22.713Z,39.00
2023-05-16T21:53:26.275Z,39.50
2023-05-16T21:58:31.173Z,39.50
2023-05-16T22:03:38.229Z,39.20
2023-05-16T22:08:44.456Z,38.80
2023-05-16T22:13:50.792Z,39.10
2023-05-16T22:18:55.102Z,38.90
2023-05-16T22:23:58.717Z,38.90
2023-05-16T22:29:03.969Z,38.80
2023-05-16T22:34:07.879Z,38.70
2023-05-16T22:39:12.009Z,38.90
2023-05-16T22:44:17.095Z,38.90
2023-05-16T22:49:20.452Z,38.80
2023-05-16T22:54:24.013Z,38.70
2023-05-16T22:59:28.841Z,38.70
2023-05-16T23:04:32.539Z,38.20
2023-05-16T23:09:36.164Z,38.70
2023-05-16T23:14:41.034Z,38.70
2023-05-16T23:19:44.487Z,38.50
2023-05-16T23:25:00.281Z,38.50
2023-05-16T23:30:16.649Z,38.60
2023-05-16T23:35:20.678Z,38.40
2023-05-16T23:40:23.940Z,38.60
2023-05-16T23:45:33.828Z,38.70
2023-05-16T23:50:37.882Z,38.10
2023-05-16T23:55:41.070Z,38.20
